Villa General Mitre, Argentina
Current Conditions -  °F | °C
As of 6:20 AM on Saturday 20 Dec 2014 (Local Time) from SACO Reporting Station
Sand / Dust Storm Sand / Dust Storm  
Wind Chill: 19°   Ceiling: 10000
Heat Index: 19°   Visibility: 1.8mi
Dew Point: 18°   Wind: 23mph
Humidity: 94%   Direction: 180°S
Pressure: 29.65"   Gusts: 35mph
Location:  30.76°S, 63.89°W
Report Text: SACO 200920Z 18020G30KT 3000 BLDU SCT012 FEW035 BKN100 19/18 Q1004
Loading
Personal Weather Stations






























Interactive Weather Map New forecast layout! Learn more

10-Day Weather Forecast

Advertisements
Track Severe Weather on mobile